2019 Manx GP: Friday evening qualifying times and results - Bikesport News

2019 Manx GP: Friday evening qualifying times and results

Times and results from Friday evening’s Senior, Junior, Newcomers, Ultra-Lightweight and Lightweight qualifying sessions

Senior - conditions dry

1 #120 James Hind Yamaha/Bass Tyre Services 2 18:51.691 120.022
2 #102 Stephen Parsons Kawasaki/The People’s Bike 2 18:55.322 119.638
3 #110 Nathan Harrison Honda/Chris Preston / Quayside Tyres 2 18:59.395 119.211
4 #107 Stephen Smith Suzuki/Slipps Racing 2 19:10.957 118.013
5 118 Damian Horan Suzuki/Martin Long/Jim Minogue 2 19:14.196 117.682
6 #116 Andrew Fisher Yamaha/Fisher Racing 2 19:17.973 117.298
7 #103 Andrew Farrell Kawasaki/JFR Racing/Steadplan 1 19:22.018 116.890
8 #117 David McConnachy Yamaha/AGR Motorsport/PALhire 1 19:26.220 116.469
9 #111 Brad Vicars Honda/VRS Racing 2 19:26.465 116.444
10 #101 Steven Procter Yamaha/Stagefreight haulage 2 19:28.876 116.204
11 #108 Dave Butler Kawasaki/Team 85 1 19:30.847 116.008
12 #109 Francesco Curinga Honda/Bemar Racing Team 2 19:31.431 115.950
13 106 Daniel Ingham Suzuki/Strangford Holiday Park 1 19:33.158 115.780
14 #121 Ryan Maher Yamaha/Back Racing Team Maher 2 19:34.266 115.671
15 #140 Arnie Shelton Kawasaki/Shelton Racing 2 19:55.648 113.602
16 113 Marc Colvin Suzuki/RC Racing 2 19:58.110 113.369
17 128 Shaun Evans Suzuki/Stonehouse Campers 2 20:03.891 112.824
18 #126 Gaz Evans Honda/Pertemps network racing 2 20:06.744 112.557
19 123 Adrian Hartog Suzuki/ 2 20:11.101 112.152
20 #133 Grant Gaskell Kawasaki/Prb racing 2 20:11.191 112.144
21 #139 Richard Stubbs Yamaha/Denise Chenoweth Racing 2 20:11.529 112.113
22 #124 Dennis Booth Kawasaki/ 2 20:14.082 111.877
23 #125 Leon Murphy Suzuki/George Stewart 2 20:17.083 111.601
24 #129 Steven Horne Kawasaki/Body Logic/Shirlaws/SBS 2 20:18.500 111.471
25 #148 James Reveley Yamaha/PCN Racing 2 20:20.047 111.330
26 #151 Kevin Barsby Triumph/SNRacing , michelin , paul dobson photography 2 20:22.338 111.121
27 #132 Teddy Bresson Kawasaki/Bijouterie POIROT 2 20:26.024 110.787
28 #141 Stuart McCann Triumph/GUS Commercials 1 20:26.094 110.781
29 #143 Colin Croft Suzuki/Croft Electrical Contractors 2 20:28.133 110.597
30 #153 Rodger Wibberley Yamaha//KS Performance 2 20:33.893 110.081
31 #131 Chris Sarbora Yamaha/Vanque Banc 2 20:35.573 109.931
32 #136 Daniel Fernandez Honda/ADT Motowear, ELF, CABERG HELMETS, REENCAFE, FULLM 1 20:36.819 109.820
33 156 Andrew McAllister Suzuki/FRSNI Bangor 1 20:37.090 109.796
34 #155 Lee Hembury Yamaha/Crendon-Fasttrack 2 20:37.780 109.735
35 #147 Nigel Rea Suzuki/Suzy mint Rea 2 20:39.465 109.586
36 #134 Andrew Windsor Yamaha/ 2 20:39.544 109.579
37 #142 Nick Southerwood Suzuki/Satori Racing 2 20:41.423 109.413
38 #145 Louis O’Regan Yamaha/Dragontec Automotive 2 20:44.728 109.123
39 #146 Ross Orchard Yamaha/westcountry inn ltd 2 20:45.656 109.041
40 #135 Jack Fowler Triumph/ 2 20:49.273 108.726
41 #152 Tommy Henry Yamaha/H. O Kane Motors Armoy 2 20:52.792 108.420
42 138 Erik Kjuus Aprilia/ 2 20:53.650 108.346

Junior - conditions dry

1 20 James Hind Yamaha/Bass Tyre Services 2 18:51.691 120.022
2 2 Stephen Parsons Kawasaki/The People’s Bike 2 18:55.322 119.638
3 10 Nathan Harrison Honda/Chris Preston / Quayside Tyres 2 18:59.395 119.211
4 7 Stephen Smith Suzuki/Slipps Racing 2 19:10.957 118.013
5 16 Andrew Fisher Yamaha/Fisher Racing 2 19:17.973 117.298
6 3 Andrew Farrell Kawasaki/JFR Racing/Steadplan 1 19:22.018 116.890
7 17 David McConnachy Yamaha/AGR Motorsport/PALhire 1 19:26.220 116.469
8 11 Brad Vicars Honda/VRS Racing 2 19:26.465 116.444
9 1 Steven Procter Yamaha/Stagefreight haulage 2 19:28.876 116.204
10 8 Dave Butler Kawasaki/Team 85 1 19:30.847 116.008
11 9 Francesco Curinga Honda/Bemar Racing Team 2 19:31.431 115.950
12 21 Ryan Maher Yamaha/Back Racing Team Maher 2 19:34.266 115.671
13 40 Arnie Shelton Kawasaki/Shelton Racing 2 19:55.648 113.602
14 26 Gaz Evans Honda/Pertemps network racing 2 20:06.744 112.557
15 33 Grant Gaskell Kawasaki/Prb racing 2 20:11.191 112.144
16 39 Richard Stubbs Yamaha/Denise Chenoweth Racing 2 20:11.529 112.113
17 24 Dennis Booth Kawasaki/ 2 20:14.082 111.877
18 25 Leon Murphy Suzuki/George Stewart 2 20:17.083 111.601
19 29 Steven Horne Kawasaki/Body Logic/Shirlaws/SBS 2 20:18.500 111.471
20 48 James Reveley Yamaha/PCN Racing 2 20:20.047 111.330
21 51 Kevin Barsby Triumph/SNRacing , michelin , paul dobson photography 2 20:22.338 111.121
22 32 Teddy Bresson Kawasaki/Bijouterie POIROT 2 20:26.024 110.787
23 41 Stuart McCann Triumph/GUS Commercials 1 20:26.094 110.781
24 43 Colin Croft Suzuki/Croft Electrical Contractors 2 20:28.133 110.597
25 #81 Pierre-Yves Bian* Yamaha/Martimotos.com 2 20:32.818 110.177
26 53 Rodger Wibberley Yamaha//KS Performance 2 20:33.893 110.081
27 31 Chris Sarbora Yamaha/Vanque Banc 2 20:35.573 109.931
28 36 Daniel Fernandez Honda/ADT Motowear, ELF, CABERG HELMETS, REENCAFE, FULLM 1 20:36.819 109.820
29 55 Lee Hembury Yamaha/Crendon-Fasttrack 2 20:37.780 109.735
30 47 Nigel Rea Suzuki/Suzy mint Rea 2 20:39.465 109.586
31 #86 Michael Mace* Triumph/Andy Wintle HV Earthing & Fitting Ltd 2 20:39.514 109.582
32 34 Andrew Windsor Yamaha/ 2 20:39.544 109.579
33 42 Nick Southerwood Suzuki/Satori Racing 2 20:41.423 109.413
34 45 Louis O’Regan Yamaha/Dragontec Automotive 2 20:44.728 109.123
35 46 Ross Orchard Yamaha/westcountry inn ltd 2 20:45.656 109.041
36 35 Jack Fowler Triumph/ 2 20:49.273 108.726
37 52 Tommy Henry Yamaha/H. O Kane Motors Armoy 2 20:52.792 108.420
38 58 Andreas Psychogyios Yamaha/PSYCHOGYIOS RACING TEAM 1 20:58.144 107.959
39 19 Michael Rees Kawasaki/G T Superbikes, MI Construction Training, Rapidgrid 2 20:59.750 107.821
40 76 Jordan McFerran Suzuki/Door Fix Suzuki 2 21:00.707 107.740
41 64 Ben Shuttlewood Triumph/MJP SERVICES 2 21:02.416 107.594
42 78 Benjamin Plant Kawasaki/Car Colour, Express mobile bodyshop and smart repairs 2 21:03.486 107.503
43 59 Paul Battersby Suzuki/R&S Racing / Ind Tech 2 21:08.305 107.094
44 62 Sebastian Witt Honda/TC Racing 2 21:08.543 107.074
45 #87 Lewis Bramwell* Suzuki/The bike specialist 2 21:17.986 106.283
46 70 Alan Johnston Kawasaki/BES Contracts 2 21:18.560 106.235
47 50 Mike Minns Honda/ 1 21:21.273 106.010
48 73 David Murphy Suzuki/Custom Paint And Airbrushing 2 21:23.064 105.862
49 54 Ray Maloney Honda/WeSubsea, LMC Lighting & Electrical Services, Chips-Plus Gram 2 21:23.784 105.803
50 60 Jason Heritage Yamaha/J&B Heritage Ltd 2 21:24.612 105.735
51 75 Christian Slater Kawasaki/SMS LTD 1 21:30.093 105.285
52 63 Iain Hill Honda/ 2 21:30.426 105.258
53 68 Ramon Basomba Yamaha/Martimotos.com Racing 1 21:30.889 105.221
54 44 Renzo van der Donckt Yamaha/Verhuizingen Depestel 1 21:32.429 105.095
55 72 Lloyd Collins Honda/Track Time 365 2 21:36.498 104.765
56 66 Peter Creer Kawasaki/ 1 21:47.788 103.861
57 77 Bertus Folkertsma Yamaha/ 2 22:06.804 102.372
58 #79 Victor Ortega* Kawasaki/KS Performance 2 22:22.612 101.167
59 #83 Danila Krasniuk* Honda/General sponsor - INPRIDE (Insurance broker, Russia) 2 22:25.799 100.927
60 #85 Paul Marley* Kawasaki/marley landrovers 1 22:39.734 99.893
61 #80 Quentin Limousin* Suzuki/TOM BIKE 1 22:47.295 99.341
62 #84 Chris North* Kawasaki/Chris Brack 1 24:07.039 93.866

Lightweight - conditions dry

1 #16 James Hind Yamaha/ 2 19:56.278 113.542
2 5 Dave Butler Kawasaki/AG Fabrication & Engineering Services 2 20:04.974 112.723
3 13 Francesco Curinga Paton/Bemar Racing Team 2 20:08.797 112.366
4 1 Andrew Farrell Kawasaki/OLLIES PLACE, JFR Racing 2 20:09.082 112.340
5 15 Chris Moore Yamaha/Outhwaite Plant/ Silverstar Services Ltd / Devitt Racing 2 20:18.551 111.467
6 9 David McConnachy Kawasaki/Bespoke Signs / GSB Joinery 2 20:51.070 108.569
7 14 Richard Stubbs Kawasaki/W.Damant property services 2 21:00.531 107.755
8 12 David Quine Kawasaki/ 2 21:02.889 107.553
9 19 Jamie Edwards Suzuki/Slidesports race engineering 2 21:11.513 106.824
10 33 Gavin Brown Kawasaki/Faraghers/Metalco 2 21:20.005 106.115
11 #56 Andrea Majola* Paton/ 2 21:28.285 105.433
12 24 Renzo van der Donckt Kawasaki/Verhuizingen Depestel 1 21:33.460 105.011
13 27 Jack Fowler Kawasaki/ 2 21:35.279 104.864
14 25 Wayne Axon Kawasaki/TART Racing Dorset 1 21:38.605 104.595
15 36 Ray Maloney Kawasaki/WeSubsea, LMC Lighting & Electrical Services, Chips-Plus Gr 2 21:42.436 104.288
16 20 Steven Horne Kawasaki/Body Logic/Shirlaws/SBS 2 21:43.007 104.242
17 23 Paul Wardell Kawasaki/Bee Lighting 2 21:43.393 104.211
18 18 Marc Colvin Suzuki/CBG Contractors LTD 1 21:51.413 103.574
19 44 Garth Woods Kawasaki/ZEUS RACING 1 21:59.829 102.913
20 26 Daniel Fernandez Kawasaki/ADT Motowear, ELF, CABERG HELMETS, REENCAFE, FUL 1 22:01.383 102.792
21 32 Veronika Hankocyova Paton/Mark Coverdale 2 22:12.220 101.956
22 48 Steven Beale Kawasaki/Mylchreests Group 2 22:20.237 101.346
23 #54 Mark Kirkby* Kawasaki/Emmerson Timber Frame & Carpentry Mansfield 2 22:23.641 101.090
24 29 Mike Minns Kawasaki/merlin sidecars 2 22:27.989 100.763
25 47 Adrian Morris Yamaha/Adrian Morris Racing 2 22:40.541 99.834
26 #53 Wayne Bourgeais* Kawasaki/Basto Transports 2 23:01.521 98.318
27 51 Martin Currams Kawasaki/ 2 23:29.546 96.363
28 45 John Bain Suzuki/Anglesey’‘s Fastest Easter Egg 2 23:33.683 96.081
29 #55 Robert Cairns* Kawasaki/L R RACING 2 24:42.911 91.596
30 49 Bradley Robinson Kawasaki/ 1 25:21.061 89.298

Ultra-Lightweight - conditions dry

1 66 Daniel Ingham Honda/Oadby Motorcycles 2 21:47.295 103.900
2 64 Alex Sinclair Yamaha/CSC Racing 2 21:59.947 102.904
3 77 Radley Hughes Kawasaki/Royal Air Force 1 22:14.165 101.807
4 70 Lancelot Unissart Honda/Pullen Racing / French Assault 1 22:19.133 101.430
5 61 Tom Snow Honda NSF/Falcon Electrical 1 22:21.391 101.259
6 74 Lloyd Collins Kawasaki/Hack Engineering 1 22:46.700 99.384
7 73 Arnie Shelton Honda/Shelton Racing 2 22:47.517 99.325
8 72 Leon Murphy Kawasaki/Hamazaki Racing 2 22:48.541 99.250
9 63 Andrew Cowie Kawasaki/Neil Wood Painting & Decorating 1 23:02.211 98.269
10 75 Nigel Moore Honda/ALAN MOORE CAR REPAIRS 2 23:09.827 97.730
11 84 Steve Price Kawasaki/Mags/BML Racing 2 23:10.828 97.660
12 #88 Andrew Jackson* Honda/Falcon electrical southport 2 23:14.972 97.370
13 78 David Murphy Honda/Ribble Valley Grab Hire 1 23:19.309 97.068
14 71 Alan Johnston Yamaha/Robert Ewing Racing 1 23:23.334 96.790
15 #91 Adrian Skaife* Honda/Jacksons Superbikes 2 23:26.395 96.579
16 82 Sarah Boyes Kramer/ARD Racing 1 23:38.373 95.763
17 85 Shelley Pike Honda/SPARK 2 24:02.854 94.138
18 83 Derek Wilkie Kawasaki/Chris Clements Groundworks & Paving 1 24:05.928 93.938
19 #87 Pete Gibson* Honda/ 2 24:17.680 93.181
20 80 David Glover Honda/CMJ Crane Services Ltd 1 24:28.043 92.523
21 67 Mike Carter Honda/ 1 24:40.154 91.766
22 #90 William Piquet* Honda/ 2 25:42.630 88.050

Newcomers A - conditions dry

1 7 Pierre-Yves Bian* Yamaha/Martimotos.com 2 20:32.818 110.177
2 16 Michael Mace* Triumph/Andy Wintle HV Earthing & Fitting Ltd 2 20:39.514 109.582
3 18 Lewis Bramwell* Suzuki/The bike specialist 2 21:17.986 106.283
4 5 Mike Brew* Kawasaki/MBRacing 2 21:43.531 104.200
5 11 Ben Wales* Yamaha/ 2 22:04.820 102.526
6 1 Victor Ortega* Kawasaki/KS Performance 2 22:22.612 101.167
7 10 Danila Krasniuk* Honda/General sponsor - INPRIDE (Insurance broker, Russia) 2 22:25.799 100.927
8 14 Chris Stuart* Yamaha/Stuart Mechanical Engineering 2 22:26.896 100.845
9 17 David Brook* Suzuki/Brook Suspension 1 22:28.087 100.756
10 13 Paul Marley* Kawasaki/marley landrovers 1 22:39.734 99.893
11 4 Liam Chawke* Kawasaki/Carl Roberts EMJESS Racing 1 22:43.143 99.643
12 8 Krystian Paluch* Honda/ 2 22:44.951 99.511
13 2 Quentin Limousin* Suzuki/TOM BIKE 1 22:47.295 99.341
14 6 Ivo Ladde* Yamaha/Dietrich, Brillenheld, 422 Corse/Ivo Ladde Racing 1 23:24.340 96.720
15 12 Chris North* Kawasaki/Chris Brack 1 24:07.039 93.866

Newcomers B - conditions dry

1 22 Andrea Majola* Paton/ 2 21:28.285 105.433
2 20 Mark Kirkby* Kawasaki/Emmerson Timber Frame & Carpentry Mansfield 2 22:23.641 101.090
3 19 Wayne Bourgeais* Kawasaki/Basto Transports 2 23:01.521 98.318
4 21 Robert Cairns* Kawasaki/L R RACING 2 24:42.911 91.596
5 25 David Stiff* Suzuki/Motul 2 26:08.668 86.588

Newcomers C - conditions dry

1 27 Andrew Jackson* Honda/Falcon electrical southport 2 23:14.972 97.370
2 30 Adrian Skaife* Honda/Jacksons Superbikes 2 23:26.395 96.579
3 29 Pete Gibson* Honda/ 2 24:17.680 93.181
4 31 William Piquet* Honda/ 2 25:42.630 88.050

Share this story: